createdAt,value
2019-03-27T00:02:20.051Z,98417.23
2019-03-27T00:04:50.656Z,98411.29
2019-03-27T00:07:21.249Z,98414.20
2019-03-27T00:09:51.936Z,98410.90
2019-03-27T00:12:22.477Z,98419.38
2019-03-27T00:14:53.090Z,98420.84
2019-03-27T00:17:23.693Z,98421.43
2019-03-27T00:19:54.323Z,98418.17
2019-03-27T00:22:25.199Z,98413.41
2019-03-27T00:24:55.815Z,98408.71
2019-03-27T00:27:26.413Z,98409.09
2019-03-27T00:29:57.016Z,98406.52
2019-03-27T00:32:27.652Z,98408.05
2019-03-27T00:34:58.501Z,98408.30
2019-03-27T00:37:29.090Z,98402.83
2019-03-27T00:39:59.705Z,98403.13
2019-03-27T00:42:30.303Z,98403.14
2019-03-27T00:45:00.981Z,98404.09
2019-03-27T00:47:31.668Z,98411.28
2019-03-27T00:50:03.496Z,98406.31
2019-03-27T00:52:34.096Z,98417.34
2019-03-27T00:55:06.634Z,98427.20
2019-03-27T00:57:37.191Z,98412.80
2019-03-27T01:00:11.367Z,98421.71
2019-03-27T01:02:41.954Z,98413.94
2019-03-27T01:05:12.623Z,98414.59
2019-03-27T01:07:44.176Z,98411.48
2019-03-27T01:10:14.780Z,98411.35
2019-03-27T01:12:45.434Z,98412.12
2019-03-27T01:15:16.033Z,98411.34
2019-03-27T01:17:46.620Z,98407.30
2019-03-27T01:20:17.260Z,98407.58
2019-03-27T01:22:48.820Z,98416.00
2019-03-27T01:25:19.416Z,98410.03
2019-03-27T01:27:51.303Z,98408.11
2019-03-27T01:30:21.946Z,98407.06
2019-03-27T01:32:52.786Z,98416.92
2019-03-27T01:35:23.419Z,98420.12
2019-03-27T01:37:54.075Z,98412.68
2019-03-27T01:40:24.676Z,98421.89
2019-03-27T01:42:55.273Z,98425.70
2019-03-27T01:45:25.899Z,98421.00
2019-03-27T01:47:56.534Z,98410.92
2019-03-27T01:50:27.162Z,98414.95
2019-03-27T01:52:57.819Z,98413.70
2019-03-27T01:55:28.433Z,98409.09
2019-03-27T01:57:58.995Z,98407.09
2019-03-27T02:00:29.638Z,98405.60
2019-03-27T02:03:00.231Z,98402.08
2019-03-27T02:05:30.879Z,98409.84
2019-03-27T02:08:01.451Z,98406.95
2019-03-27T02:10:32.132Z,98402.60
2019-03-27T02:13:03.950Z,98398.73
2019-03-27T02:15:34.564Z,98402.92
2019-03-27T02:18:05.138Z,98404.33
2019-03-27T02:20:35.797Z,98409.10
2019-03-27T02:23:06.385Z,98411.14
2019-03-27T02:25:37.360Z,98407.63
2019-03-27T02:28:07.981Z,98413.22
2019-03-27T02:30:40.017Z,98414.98
2019-03-27T02:33:10.618Z,98419.34
2019-03-27T02:35:41.241Z,98421.58
2019-03-27T02:38:11.841Z,98415.97
2019-03-27T02:40:42.448Z,98419.59
2019-03-27T02:43:13.036Z,98419.82
2019-03-27T02:45:43.698Z,98419.84
2019-03-27T02:48:14.554Z,98429.83
2019-03-27T02:50:45.195Z,98427.44
2019-03-27T02:53:16.326Z,98425.02
2019-03-27T02:55:46.912Z,98434.72
2019-03-27T02:58:17.473Z,98435.42
2019-03-27T03:00:48.082Z,98423.82
2019-03-27T03:03:18.674Z,98431.89
2019-03-27T03:05:49.376Z,98432.52
2019-03-27T03:08:19.948Z,98432.98
2019-03-27T03:10:50.581Z,98436.17
2019-03-27T03:13:21.681Z,98434.12
2019-03-27T03:15:53.004Z,98434.88
2019-03-27T03:18:23.588Z,98429.31
2019-03-27T03:20:54.457Z,98431.19
2019-03-27T03:23:25.331Z,98434.21
2019-03-27T03:25:55.965Z,98434.37
2019-03-27T03:28:26.551Z,98435.52
2019-03-27T03:30:57.173Z,98438.80
2019-03-27T03:33:29.505Z,98430.78
2019-03-27T03:36:00.400Z,98433.75
2019-03-27T03:38:30.987Z,98435.97
2019-03-27T03:41:01.884Z,98441.65
2019-03-27T03:43:32.753Z,98433.44
2019-03-27T03:46:03.590Z,98439.72
2019-03-27T03:48:34.209Z,98444.94
2019-03-27T03:51:05.525Z,98448.17
2019-03-27T03:53:36.317Z,98451.69
2019-03-27T03:56:08.217Z,98448.98
2019-03-27T03:58:40.683Z,98457.73
2019-03-27T04:01:11.713Z,98458.12
2019-03-27T04:03:44.835Z,98448.25
2019-03-27T04:06:15.466Z,98450.83
2019-03-27T04:08:46.431Z,98457.84
2019-03-27T04:11:17.000Z,98461.17
2019-03-27T04:13:47.669Z,98457.52
2019-03-27T04:16:18.282Z,98457.89
2019-03-27T04:18:48.928Z,98462.51
2019-03-27T04:21:19.524Z,98463.19
2019-03-27T04:23:50.148Z,98462.31
2019-03-27T04:26:20.701Z,98463.70
2019-03-27T04:28:51.272Z,98464.66
2019-03-27T04:31:21.906Z,98473.48
2019-03-27T04:33:52.491Z,98461.24
2019-03-27T04:36:23.353Z,98460.02
2019-03-27T04:38:54.255Z,98466.25
2019-03-27T04:41:25.198Z,98465.89
2019-03-27T04:43:55.789Z,98464.91
2019-03-27T04:46:26.406Z,98469.14
2019-03-27T04:48:57.002Z,98472.64
2019-03-27T04:51:27.685Z,98479.55
2019-03-27T04:53:58.287Z,98476.14
2019-03-27T04:56:29.016Z,98477.62
2019-03-27T04:58:59.771Z,98482.32
2019-03-27T05:01:30.752Z,98484.50
2019-03-27T05:04:02.161Z,98480.93
2019-03-27T05:06:33.067Z,98479.70
2019-03-27T05:09:04.926Z,98484.55
2019-03-27T05:11:36.283Z,98479.35
2019-03-27T05:14:07.224Z,98486.45
2019-03-27T05:16:37.865Z,98485.53
2019-03-27T05:19:08.727Z,98492.41
2019-03-27T05:21:39.949Z,98492.68
2019-03-27T05:24:10.535Z,98491.72
2019-03-27T05:26:41.176Z,98501.03
2019-03-27T05:29:12.735Z,98506.92
2019-03-27T05:31:43.589Z,98510.95
2019-03-27T05:34:14.175Z,98512.33
2019-03-27T05:36:44.839Z,98508.47
2019-03-27T05:39:16.379Z,98517.95
2019-03-27T05:41:47.118Z,98524.42
2019-03-27T05:44:17.712Z,98515.41
2019-03-27T05:46:48.336Z,98527.36
2019-03-27T05:49:19.309Z,98529.50
2019-03-27T05:51:50.686Z,98524.94
2019-03-27T05:54:21.263Z,98525.39
2019-03-27T05:56:51.871Z,98528.14
2019-03-27T05:59:22.450Z,98527.23
2019-03-27T06:01:53.308Z,98535.78
2019-03-27T06:04:24.141Z,98535.33
2019-03-27T06:06:54.747Z,98536.55
2019-03-27T06:09:25.347Z,98537.37
2019-03-27T06:11:56.217Z,98546.00
2019-03-27T06:14:27.201Z,98548.36
2019-03-27T06:16:58.096Z,98543.17
2019-03-27T06:19:28.679Z,98547.40
2019-03-27T06:21:59.279Z,98550.13
2019-03-27T06:24:29.862Z,98546.08
2019-03-27T06:27:00.451Z,98552.27
2019-03-27T06:29:31.059Z,98548.77
2019-03-27T06:32:01.704Z,98556.88
2019-03-27T06:34:32.368Z,98562.38
2019-03-27T06:37:03.004Z,98563.30
2019-03-27T06:39:33.952Z,98557.10
2019-03-27T06:42:04.571Z,98566.18
2019-03-27T06:44:35.790Z,98569.22
2019-03-27T06:47:06.435Z,98566.61
2019-03-27T06:49:37.006Z,98567.25
2019-03-27T06:52:07.615Z,98577.66
2019-03-27T06:54:38.195Z,98578.44
2019-03-27T06:57:08.786Z,98571.97
2019-03-27T06:59:39.389Z,98577.72
2019-03-27T07:02:09.985Z,98580.80
2019-03-27T07:04:41.777Z,98583.97
2019-03-27T07:07:12.386Z,98590.81
2019-03-27T07:09:42.957Z,98588.11
2019-03-27T07:12:21.032Z,98590.08
2019-03-27T07:14:46.633Z,98594.64
2019-03-27T07:17:17.247Z,98594.16
2019-03-27T07:19:47.881Z,98598.03
2019-03-27T07:22:18.501Z,98598.91
2019-03-27T07:24:49.069Z,98599.13
2019-03-27T07:27:19.705Z,98595.39
2019-03-27T07:29:50.293Z,98598.19
2019-03-27T07:32:21.224Z,98586.34
2019-03-27T07:34:51.817Z,98587.67
2019-03-27T07:37:23.388Z,98600.59
2019-03-27T07:39:53.968Z,98609.48
2019-03-27T07:42:24.589Z,98604.16
2019-03-27T07:44:55.153Z,98610.03
2019-03-27T07:47:26.308Z,98616.64
2019-03-27T07:49:56.970Z,98624.20
2019-03-27T07:52:27.563Z,98625.66
2019-03-27T07:54:58.156Z,98623.13
2019-03-27T07:57:28.793Z,98626.51
2019-03-27T07:59:59.374Z,98622.22
2019-03-27T08:02:29.995Z,98628.98
2019-03-27T08:05:00.826Z,98622.69
2019-03-27T08:07:31.437Z,98631.19
2019-03-27T08:10:02.045Z,98633.62
2019-03-27T08:12:33.005Z,98633.23
2019-03-27T08:15:03.656Z,98630.52
2019-03-27T08:17:34.519Z,98627.17
2019-03-27T08:20:05.828Z,98620.36
2019-03-27T08:22:36.441Z,98619.24
2019-03-27T08:25:09.315Z,98628.75
2019-03-27T08:27:40.223Z,98632.88
2019-03-27T08:30:12.635Z,98627.69
2019-03-27T08:32:44.193Z,98635.50
2019-03-27T08:35:15.135Z,98630.78
2019-03-27T08:37:45.818Z,98641.17
2019-03-27T08:40:16.490Z,98641.80
2019-03-27T08:42:47.075Z,98644.70
2019-03-27T08:45:19.154Z,98646.58
2019-03-27T08:47:49.788Z,98649.72
2019-03-27T08:50:20.691Z,98648.48
2019-03-27T08:52:51.646Z,98654.82
2019-03-27T08:55:22.503Z,98653.28
2019-03-27T08:57:53.114Z,98654.58
2019-03-27T09:00:48.077Z,98658.75
2019-03-27T09:03:19.115Z,98660.28
2019-03-27T09:05:49.884Z,98656.84
2019-03-27T09:08:20.620Z,98651.75
2019-03-27T09:10:51.448Z,98653.69
2019-03-27T09:13:22.040Z,98652.45
2019-03-27T09:15:52.612Z,98651.09
2019-03-27T09:18:23.574Z,98651.44
2019-03-27T09:20:54.173Z,98654.06
2019-03-27T09:23:24.807Z,98648.20
2019-03-27T09:25:55.432Z,98643.84
2019-03-27T09:28:26.999Z,98653.11
2019-03-27T09:30:57.576Z,98648.13
2019-03-27T09:33:28.217Z,98654.86
2019-03-27T09:35:58.917Z,98656.20
2019-03-27T09:38:29.621Z,98655.20
2019-03-27T09:41:00.570Z,98654.67
2019-03-27T09:43:31.194Z,98652.24
2019-03-27T09:46:01.769Z,98653.09
2019-03-27T09:48:32.465Z,98649.53
2019-03-27T09:51:03.097Z,98645.75
2019-03-27T09:53:33.680Z,98652.30
2019-03-27T09:56:18.095Z,98649.05
2019-03-27T09:58:36.574Z,98641.75
2019-03-27T10:01:07.719Z,98646.11
2019-03-27T10:03:38.760Z,98641.16
2019-03-27T10:06:09.431Z,98640.56
2019-03-27T10:08:40.312Z,98635.41
2019-03-27T10:11:10.896Z,98642.56
2019-03-27T10:13:41.522Z,98635.08
2019-03-27T10:16:12.103Z,98639.20
2019-03-27T10:18:43.704Z,98644.73
2019-03-27T10:21:15.481Z,98653.48
2019-03-27T10:23:46.091Z,98645.73
2019-03-27T10:26:16.678Z,98650.48
2019-03-27T10:28:47.323Z,98655.23
2019-03-27T10:31:17.908Z,98662.39
2019-03-27T10:33:48.501Z,98662.41
2019-03-27T10:36:19.165Z,98655.78
2019-03-27T10:38:49.932Z,98658.91
2019-03-27T10:41:20.828Z,98660.17
2019-03-27T10:43:52.411Z,98661.30
2019-03-27T10:46:23.008Z,98666.87
2019-03-27T10:48:54.780Z,98671.05
2019-03-27T10:51:25.688Z,98670.87
2019-03-27T10:53:56.698Z,98661.91
2019-03-27T10:56:27.550Z,98657.88
2019-03-27T10:58:58.505Z,98652.53
2019-03-27T11:01:29.658Z,98660.84
2019-03-27T11:04:00.512Z,98659.47
2019-03-27T11:06:31.199Z,98660.61
2019-03-27T11:09:01.822Z,98662.44
2019-03-27T11:11:34.031Z,98677.66
2019-03-27T11:14:04.641Z,98679.67
2019-03-27T11:16:35.208Z,98679.25
2019-03-27T11:19:06.120Z,98684.02
2019-03-27T11:21:36.718Z,98687.19
2019-03-27T11:24:07.333Z,98690.98
2019-03-27T11:26:38.249Z,98682.84
2019-03-27T11:29:08.839Z,98689.75
2019-03-27T11:31:39.407Z,98692.22
2019-03-27T11:34:10.278Z,98684.58
2019-03-27T11:36:40.844Z,98684.12
2019-03-27T11:39:11.636Z,98680.52
2019-03-27T11:41:42.249Z,98691.84
2019-03-27T11:44:12.936Z,98679.00
2019-03-27T11:46:43.464Z,98683.63
2019-03-27T11:49:14.345Z,98688.03
2019-03-27T11:51:45.472Z,98675.86
2019-03-27T11:54:16.368Z,98678.97
2019-03-27T11:56:46.945Z,98681.61
2019-03-27T11:59:17.549Z,98688.53
2019-03-27T12:01:48.140Z,98681.95
2019-03-27T12:04:18.743Z,98677.80
2019-03-27T12:06:49.319Z,98685.88
2019-03-27T12:09:19.969Z,98689.05
2019-03-27T12:11:50.519Z,98687.97
2019-03-27T12:14:21.171Z,98691.30
2019-03-27T12:16:51.761Z,98689.30
2019-03-27T12:19:22.388Z,98691.73
2019-03-27T12:21:54.800Z,98691.95
2019-03-27T12:24:25.334Z,98688.23
2019-03-27T12:26:55.924Z,98687.44
2019-03-27T12:29:26.783Z,98686.27
2019-03-27T12:31:57.494Z,98682.44
2019-03-27T12:34:28.125Z,98688.70
2019-03-27T12:36:58.738Z,98680.27
2019-03-27T12:39:29.396Z,98672.14
2019-03-27T12:42:00.262Z,98679.17
2019-03-27T12:44:30.873Z,98689.81
2019-03-27T12:47:01.495Z,98682.81
2019-03-27T12:49:32.087Z,98681.27
2019-03-27T12:52:05.384Z,98682.19
2019-03-27T12:54:34.982Z,98679.97
2019-03-27T12:57:05.628Z,98679.44
2019-03-27T12:59:36.476Z,98680.18
2019-03-27T13:02:08.075Z,98674.77
2019-03-27T13:04:38.911Z,98673.34
2019-03-27T13:07:09.759Z,98677.88
2019-03-27T13:09:40.396Z,98675.26
2019-03-27T13:12:11.072Z,98675.80
2019-03-27T13:14:41.689Z,98668.95
2019-03-27T13:17:12.272Z,98668.91
2019-03-27T13:19:42.907Z,98669.77
2019-03-27T13:22:13.485Z,98671.94
2019-03-27T13:24:44.085Z,98667.60
2019-03-27T13:27:14.714Z,98665.82
2019-03-27T13:29:45.324Z,98666.04
2019-03-27T13:32:16.216Z,98666.45
2019-03-27T13:34:46.830Z,98667.14
2019-03-27T13:37:17.415Z,98666.72
2019-03-27T13:39:48.076Z,98659.19
2019-03-27T13:42:18.664Z,98657.84
2019-03-27T13:44:49.288Z,98662.64
2019-03-27T13:47:19.882Z,98663.67
2019-03-27T13:49:50.831Z,98659.75
2019-03-27T13:52:21.411Z,98654.88
2019-03-27T13:54:52.032Z,98657.27
2019-03-27T13:57:22.624Z,98651.89
2019-03-27T13:59:53.228Z,98652.59
2019-03-27T14:02:24.064Z,98644.09
2019-03-27T14:04:54.655Z,98647.16
2019-03-27T14:07:25.272Z,98653.55
2019-03-27T14:09:55.888Z,98646.18
2019-03-27T14:12:26.478Z,98642.73
2019-03-27T14:14:57.092Z,98639.55
2019-03-27T14:17:27.677Z,98638.34
2019-03-27T14:19:58.382Z,98630.13
2019-03-27T14:22:28.960Z,98635.90
2019-03-27T14:24:59.586Z,98631.00
2019-03-27T14:27:30.423Z,98628.62
2019-03-27T14:30:01.048Z,98630.59
2019-03-27T14:32:31.727Z,98633.03
2019-03-27T14:35:02.325Z,98628.31
2019-03-27T14:37:33.387Z,98630.74
2019-03-27T14:40:04.541Z,98629.31
2019-03-27T14:42:35.387Z,98629.34
2019-03-27T14:45:08.735Z,98624.47
2019-03-27T14:47:39.317Z,98629.94
2019-03-27T14:50:10.573Z,98631.75
2019-03-27T14:52:41.225Z,98623.83
2019-03-27T14:55:11.967Z,98626.84
2019-03-27T14:57:42.806Z,98632.35
2019-03-27T15:00:13.782Z,98626.73
2019-03-27T15:02:44.659Z,98631.19
2019-03-27T15:05:15.942Z,98626.38
2019-03-27T15:07:46.628Z,98625.73
2019-03-27T15:10:27.205Z,98624.79
2019-03-27T15:13:04.488Z,98633.00
2019-03-27T15:15:35.155Z,98632.02
2019-03-27T15:18:05.849Z,98629.47
2019-03-27T15:20:38.146Z,98631.41
2019-03-27T15:23:09.147Z,98629.31
2019-03-27T15:25:41.034Z,98628.89
2019-03-27T15:28:11.924Z,98631.48
2019-03-27T15:30:42.508Z,98627.44
2019-03-27T15:33:13.355Z,98636.95
2019-03-27T15:35:44.722Z,98638.58
2019-03-27T15:38:15.335Z,98643.65
2019-03-27T15:40:47.573Z,98639.09
2019-03-27T15:43:18.219Z,98639.64
2019-03-27T15:45:48.845Z,98637.23
2019-03-27T15:48:19.435Z,98632.05
2019-03-27T15:50:57.106Z,98634.43
2019-03-27T15:53:22.706Z,98632.02
2019-03-27T15:55:53.332Z,98633.51
2019-03-27T15:58:23.916Z,98634.91
2019-03-27T16:00:54.516Z,98631.88
2019-03-27T16:03:25.133Z,98631.91
2019-03-27T16:05:55.773Z,98638.33
2019-03-27T16:08:26.662Z,98636.23
2019-03-27T16:10:57.498Z,98631.76
2019-03-27T16:13:28.103Z,98635.77
2019-03-27T16:15:58.732Z,98649.40
2019-03-27T16:18:29.318Z,98641.52
2019-03-27T16:20:59.910Z,98641.92
2019-03-27T16:23:32.336Z,98651.87
2019-03-27T16:26:03.095Z,98649.42
2019-03-27T16:28:33.704Z,98656.22
2019-03-27T16:31:04.320Z,98659.77
2019-03-27T16:33:35.598Z,98655.00
2019-03-27T16:36:06.202Z,98655.36
2019-03-27T16:38:37.745Z,98657.88
2019-03-27T16:41:08.390Z,98649.01
2019-03-27T16:43:38.979Z,98658.86
2019-03-27T16:46:09.575Z,98650.70
2019-03-27T16:48:40.172Z,98648.48
2019-03-27T16:51:11.046Z,98652.92
2019-03-27T16:53:41.640Z,98662.24
2019-03-27T16:56:12.268Z,98656.34
2019-03-27T16:58:42.863Z,98660.80
2019-03-27T17:01:13.558Z,98661.66
2019-03-27T17:03:44.135Z,98665.56
2019-03-27T17:06:15.715Z,98657.89
2019-03-27T17:08:47.160Z,98661.80
2019-03-27T17:11:17.784Z,98668.05
2019-03-27T17:13:48.368Z,98674.67
2019-03-27T17:16:18.964Z,98670.11
2019-03-27T17:18:50.526Z,98673.45
2019-03-27T17:21:21.955Z,98672.37
2019-03-27T17:23:52.592Z,98677.98
2019-03-27T17:26:23.648Z,98688.97
2019-03-27T17:28:55.515Z,98686.59
2019-03-27T17:31:26.718Z,98687.08
2019-03-27T17:33:57.299Z,98690.37
2019-03-27T17:36:28.215Z,98683.20
2019-03-27T17:38:58.802Z,98695.72
2019-03-27T17:41:30.379Z,98697.61
2019-03-27T17:44:00.998Z,98707.90
2019-03-27T17:46:31.716Z,98706.02
2019-03-27T17:49:02.326Z,98703.16
2019-03-27T17:51:33.016Z,98710.45
2019-03-27T17:54:03.582Z,98704.27
2019-03-27T17:56:34.586Z,98716.18
2019-03-27T17:59:05.174Z,98715.09
2019-03-27T18:01:36.130Z,98713.59
2019-03-27T18:04:06.711Z,98711.85
2019-03-27T18:06:38.691Z,98717.35
2019-03-27T18:09:09.799Z,98715.02
2019-03-27T18:11:40.445Z,98718.82
2019-03-27T18:14:11.387Z,98719.45
2019-03-27T18:16:42.046Z,98722.22
2019-03-27T18:19:12.596Z,98716.81
2019-03-27T18:21:43.222Z,98725.08
2019-03-27T18:24:13.815Z,98723.20
2019-03-27T18:26:44.683Z,98727.41
2019-03-27T18:29:15.510Z,98722.31
2019-03-27T18:31:46.115Z,98720.27
2019-03-27T18:34:16.951Z,98730.14
2019-03-27T18:36:48.141Z,98727.81
2019-03-27T18:39:18.742Z,98732.08
2019-03-27T18:41:49.858Z,98735.80
2019-03-27T18:44:20.698Z,98736.16
2019-03-27T18:46:51.571Z,98746.84
2019-03-27T18:49:22.179Z,98739.52
2019-03-27T18:51:53.156Z,98745.25
2019-03-27T18:54:23.767Z,98747.20
2019-03-27T18:56:54.400Z,98742.38
2019-03-27T18:59:25.016Z,98749.33
2019-03-27T19:01:55.883Z,98750.47
2019-03-27T19:04:26.528Z,98751.55
2019-03-27T19:06:58.815Z,98743.75
2019-03-27T19:09:29.521Z,98743.58
2019-03-27T19:12:00.135Z,98753.44
2019-03-27T19:14:30.729Z,98749.15
2019-03-27T19:17:01.334Z,98744.86
2019-03-27T19:19:31.919Z,98748.97
2019-03-27T19:22:02.526Z,98748.22
2019-03-27T19:24:33.136Z,98751.94
2019-03-27T19:27:03.767Z,98756.31
2019-03-27T19:29:34.379Z,98759.52
2019-03-27T19:32:05.007Z,98755.02
2019-03-27T19:34:35.599Z,98749.36
2019-03-27T19:37:06.207Z,98757.42
2019-03-27T19:39:37.776Z,98757.50
2019-03-27T19:42:08.409Z,98764.75
2019-03-27T19:44:39.296Z,98763.81
2019-03-27T19:47:09.937Z,98771.45
2019-03-27T19:49:40.535Z,98766.19
2019-03-27T19:52:11.153Z,98767.01
2019-03-27T19:54:41.728Z,98769.75
2019-03-27T19:57:12.387Z,98768.62
2019-03-27T19:59:42.955Z,98768.28
2019-03-27T20:02:13.569Z,98769.30
2019-03-27T20:04:44.163Z,98765.48
2019-03-27T20:07:14.791Z,98766.39
2019-03-27T20:09:45.405Z,98772.03
2019-03-27T20:12:16.042Z,98773.48
2019-03-27T20:14:47.011Z,98773.95
2019-03-27T20:17:17.608Z,98777.28
2019-03-27T20:19:48.298Z,98777.00
2019-03-27T20:22:18.920Z,98774.90
2019-03-27T20:24:49.856Z,98775.48
2019-03-27T20:27:20.490Z,98778.31
2019-03-27T20:29:51.294Z,98772.36
2019-03-27T20:32:22.168Z,98778.31
2019-03-27T20:34:53.200Z,98777.11
2019-03-27T20:37:23.828Z,98772.17
2019-03-27T20:39:54.516Z,98770.56
2019-03-27T20:42:25.484Z,98773.27
2019-03-27T20:44:56.145Z,98776.41
2019-03-27T20:47:27.070Z,98774.66
2019-03-27T20:49:57.943Z,98775.71
2019-03-27T20:52:28.618Z,98770.50
2019-03-27T20:54:59.280Z,98773.30
2019-03-27T20:57:29.907Z,98764.56
2019-03-27T21:00:00.836Z,98766.77
2019-03-27T21:02:33.295Z,98768.09
2019-03-27T21:05:04.090Z,98771.73
2019-03-27T21:07:35.963Z,98772.38
2019-03-27T21:10:07.613Z,98777.36
2019-03-27T21:12:38.249Z,98770.46
2019-03-27T21:15:09.275Z,98776.81
2019-03-27T21:17:40.206Z,98769.39
2019-03-27T21:20:11.028Z,98774.59
2019-03-27T21:22:41.638Z,98773.73
2019-03-27T21:25:12.520Z,98778.48
2019-03-27T21:27:43.503Z,98781.45
2019-03-27T21:30:15.188Z,98787.78
2019-03-27T21:32:46.433Z,98779.03
2019-03-27T21:35:17.165Z,98784.42
2019-03-27T21:37:48.010Z,98789.52
2019-03-27T21:40:18.710Z,98791.23
2019-03-27T21:42:49.326Z,98794.80
2019-03-27T21:45:20.497Z,98798.86
2019-03-27T21:47:51.937Z,98789.45
2019-03-27T21:50:22.577Z,98793.34
2019-03-27T21:53:00.470Z,98794.45
2019-03-27T21:55:25.703Z,98797.91
2019-03-27T21:57:56.941Z,98795.21
2019-03-27T22:00:37.545Z,98799.84
2019-03-27T22:03:08.473Z,98803.56
2019-03-27T22:05:39.089Z,98802.59
2019-03-27T22:08:09.708Z,98804.70
2019-03-27T22:10:40.404Z,98810.75
2019-03-27T22:13:11.019Z,98811.84
2019-03-27T22:15:41.934Z,98815.73
2019-03-27T22:18:12.557Z,98812.50
2019-03-27T22:20:43.149Z,98819.18
2019-03-27T22:23:13.767Z,98811.88
2019-03-27T22:25:44.415Z,98820.92
2019-03-27T22:28:15.276Z,98815.30
2019-03-27T22:30:45.888Z,98822.46
2019-03-27T22:33:16.489Z,98825.85
2019-03-27T22:35:47.077Z,98825.32
2019-03-27T22:38:17.718Z,98822.81
2019-03-27T22:40:48.302Z,98825.95
2019-03-27T22:43:19.185Z,98824.17
2019-03-27T22:45:49.805Z,98828.88
2019-03-27T22:48:20.454Z,98835.06
2019-03-27T22:50:51.308Z,98830.28
2019-03-27T22:53:23.199Z,98824.73
2019-03-27T22:55:53.797Z,98825.70
2019-03-27T22:58:24.781Z,98828.50
2019-03-27T23:00:56.015Z,98826.95
2019-03-27T23:03:27.369Z,98827.20
2019-03-27T23:05:57.949Z,98821.69
2019-03-27T23:08:28.567Z,98816.88
2019-03-27T23:10:59.421Z,98816.45
2019-03-27T23:13:30.068Z,98815.62
2019-03-27T23:16:00.767Z,98807.34
2019-03-27T23:18:31.394Z,98812.83
2019-03-27T23:21:01.992Z,98809.84
2019-03-27T23:23:32.595Z,98811.53
2019-03-27T23:26:03.766Z,98805.88
2019-03-27T23:28:34.461Z,98810.25
